createdAt,value
2022-09-21T00:00:18.111Z,101883.84
2022-09-21T00:03:00.591Z,101879.50
2022-09-21T00:05:42.028Z,101876.00
2022-09-21T00:08:21.507Z,101873.38
2022-09-21T00:11:01.970Z,101867.09
2022-09-21T00:13:44.269Z,101866.25
2022-09-21T00:16:22.941Z,101875.28
2022-09-21T00:19:02.234Z,101867.53
2022-09-21T00:21:44.297Z,101877.25
2022-09-21T00:24:23.393Z,101880.13
2022-09-21T00:27:03.210Z,101889.25
2022-09-21T00:29:54.992Z,101893.81
2022-09-21T00:32:34.495Z,101897.31
2022-09-21T00:35:13.237Z,101904.50
2022-09-21T00:37:51.411Z,101897.41
2022-09-21T00:40:31.280Z,101903.66
2022-09-21T00:43:17.453Z,101898.38
2022-09-21T00:46:01.727Z,101896.91
2022-09-21T00:48:42.811Z,101911.06
2022-09-21T00:51:22.924Z,101911.28
2022-09-21T00:54:06.769Z,101914.88
2022-09-21T00:56:47.449Z,101913.19
2022-09-21T00:59:30.380Z,101921.56
2022-09-21T01:02:10.972Z,101918.91
2022-09-21T01:04:54.554Z,101920.81
2022-09-21T01:07:41.543Z,101924.41
2022-09-21T01:10:20.926Z,101931.78
2022-09-21T01:13:09.978Z,101932.00
2022-09-21T01:15:54.640Z,101930.22
2022-09-21T01:18:37.983Z,101931.16
2022-09-21T01:21:20.378Z,101936.56
2022-09-21T01:24:46.326Z,101942.69
2022-09-21T01:27:36.531Z,101934.13
2022-09-21T01:30:17.016Z,101939.63
2022-09-21T01:33:01.009Z,101940.69
2022-09-21T01:35:45.798Z,101939.00
2022-09-21T01:38:27.432Z,101942.56
2022-09-21T01:41:10.532Z,101944.47
2022-09-21T01:43:55.029Z,101938.16
2022-09-21T01:46:37.171Z,101935.56
2022-09-21T01:49:24.148Z,101938.31
2022-09-21T01:52:08.249Z,101938.53
2022-09-21T01:54:51.492Z,101936.94
2022-09-21T01:57:37.863Z,101938.97
2022-09-21T02:00:17.692Z,101935.69
2022-09-21T02:03:00.768Z,101934.94
2022-09-21T02:05:51.963Z,101947.19
2022-09-21T02:08:33.027Z,101942.00
2022-09-21T02:11:13.975Z,101943.78
2022-09-21T02:13:56.604Z,101944.84
2022-09-21T02:16:40.547Z,101943.16
2022-09-21T02:19:29.299Z,101946.75
2022-09-21T02:22:15.010Z,101942.50
2022-09-21T02:24:57.043Z,101936.56
2022-09-21T02:27:43.837Z,101936.69
2022-09-21T02:30:27.287Z,101935.94
2022-09-21T02:33:12.565Z,101940.47
2022-09-21T02:35:59.085Z,101936.22
2022-09-21T02:38:42.736Z,101932.72
2022-09-21T02:41:27.407Z,101941.81
2022-09-21T02:44:12.060Z,101942.66
2022-09-21T02:47:10.198Z,101939.28
2022-09-21T02:49:53.314Z,101937.56
2022-09-21T02:52:35.556Z,101941.16
2022-09-21T02:55:16.509Z,101937.78
2022-09-21T02:57:56.337Z,101947.03
2022-09-21T03:00:35.909Z,101937.25
2022-09-21T03:03:20.027Z,101939.78
2022-09-21T03:05:59.728Z,101945.16
2022-09-21T03:08:37.927Z,101945.16
2022-09-21T03:11:19.060Z,101936.47
2022-09-21T03:13:59.280Z,101941.84
2022-09-21T03:16:40.722Z,101943.66
2022-09-21T03:19:19.992Z,101939.31
2022-09-21T03:22:00.040Z,101939.31
2022-09-21T03:24:48.486Z,101946.41
2022-09-21T03:27:31.031Z,101947.34
2022-09-21T03:30:11.692Z,101944.91
2022-09-21T03:32:52.327Z,101954.44
2022-09-21T03:35:31.693Z,101956.31
2022-09-21T03:38:11.552Z,101953.78
2022-09-21T03:41:33.658Z,101952.94
2022-09-21T03:44:17.666Z,101946.81
2022-09-21T03:46:58.399Z,101954.63
2022-09-21T03:49:39.731Z,101950.28
2022-09-21T03:52:19.140Z,101949.53
2022-09-21T03:54:58.918Z,101954.94
2022-09-21T03:57:39.211Z,101942.56
2022-09-21T04:00:18.923Z,101947.84
2022-09-21T04:03:01.802Z,101953.22
2022-09-21T04:05:44.304Z,101948.06
2022-09-21T04:08:24.271Z,101957.78
2022-09-21T04:11:03.233Z,101955.13
2022-09-21T04:13:43.069Z,101950.78
2022-09-21T04:16:24.237Z,101956.94
2022-09-21T04:19:05.921Z,101956.16
2022-09-21T04:21:51.234Z,101958.03
2022-09-21T04:24:55.691Z,101959.00
2022-09-21T04:27:37.112Z,101966.16
2022-09-21T04:30:17.763Z,101966.38
2022-09-21T04:32:57.323Z,101972.59
2022-09-21T04:35:39.109Z,101972.06
2022-09-21T04:38:18.610Z,101973.00
2022-09-21T04:40:59.015Z,101972.91
2022-09-21T04:43:36.881Z,101972.06
2022-09-21T04:46:30.392Z,101976.59
2022-09-21T04:49:10.623Z,101988.06
2022-09-21T04:51:53.059Z,101979.41
2022-09-21T04:54:32.708Z,101980.34
2022-09-21T04:57:14.684Z,101986.66
2022-09-21T04:59:55.219Z,101988.47
2022-09-21T05:02:33.933Z,101990.34
2022-09-21T05:05:13.267Z,101991.41
2022-09-21T05:07:55.211Z,101996.78
2022-09-21T05:10:54.055Z,102003.19
2022-09-21T05:13:33.491Z,101998.09
2022-09-21T05:16:14.516Z,102004.22
2022-09-21T05:18:55.841Z,102003.38
2022-09-21T05:21:38.065Z,102004.22
2022-09-21T05:24:19.455Z,102005.06
2022-09-21T05:27:02.226Z,102009.44
2022-09-21T05:29:43.492Z,102003.19
2022-09-21T05:32:26.017Z,102005.06
2022-09-21T05:35:14.019Z,102000.72
2022-09-21T05:37:58.524Z,102005.16
2022-09-21T05:41:00.651Z,102002.50
2022-09-21T05:43:41.779Z,102006.94
2022-09-21T05:46:33.990Z,102006.78
2022-09-21T05:49:18.782Z,102009.50
2022-09-21T05:52:03.880Z,102006.78
2022-09-21T05:54:52.107Z,102004.91
2022-09-21T05:57:40.267Z,102001.31
2022-09-21T06:00:39.363Z,102001.22
2022-09-21T06:03:28.217Z,101992.25
2022-09-21T06:06:08.909Z,101993.75
2022-09-21T06:08:48.539Z,101992.81
2022-09-21T06:11:28.319Z,101997.88
2022-09-21T06:14:09.181Z,101991.66
2022-09-21T06:16:52.113Z,101987.16
2022-09-21T06:19:32.594Z,101979.03
2022-09-21T06:22:14.412Z,101977.88
2022-09-21T06:24:53.777Z,101970.72
2022-09-21T06:27:35.693Z,101965.03
2022-09-21T06:30:16.095Z,101957.00
2022-09-21T06:32:59.976Z,101948.69
2022-09-21T06:35:40.278Z,101941.22
2022-09-21T06:38:20.818Z,101928.63
2022-09-21T06:41:03.623Z,101926.66
2022-09-21T06:43:43.597Z,101915.69
2022-09-21T06:46:37.230Z,101908.19
2022-09-21T06:49:18.592Z,101915.84
2022-09-21T06:51:56.922Z,101907.69
2022-09-21T06:54:35.116Z,101902.72
2022-09-21T06:57:15.461Z,101893.47
2022-09-21T06:59:56.179Z,101882.56
2022-09-21T07:02:38.825Z,101871.44
2022-09-21T07:05:18.744Z,101707.88
2022-09-21T07:08:02.419Z,101691.56
2022-09-21T07:10:43.086Z,101676.72
2022-09-21T07:13:23.699Z,101661.22
2022-09-21T07:16:07.155Z,101646.59
2022-09-21T07:18:48.864Z,101631.72
2022-09-21T07:21:31.903Z,101619.47
2022-09-21T07:24:12.610Z,101602.00
2022-09-21T07:26:53.115Z,101586.47
2022-09-21T07:29:33.107Z,101575.09
2022-09-21T07:32:13.326Z,101561.38
2022-09-21T07:34:56.991Z,101566.81
2022-09-21T07:37:37.154Z,101565.25
2022-09-21T07:40:18.407Z,101566.22
2022-09-21T07:43:02.921Z,101564.78
2022-09-21T07:45:43.090Z,101557.22
2022-09-21T07:48:23.513Z,101557.31
2022-09-21T07:51:06.003Z,101553.81
2022-09-21T07:53:45.668Z,101552.22
2022-09-21T07:56:26.025Z,101541.03
2022-09-21T07:59:08.458Z,101530.50
2022-09-21T08:01:50.383Z,101540.50
2022-09-21T08:04:28.440Z,101537.22
2022-09-21T08:07:06.839Z,101539.00
2022-09-21T08:09:49.243Z,101550.53
2022-09-21T08:12:31.099Z,101557.75
2022-09-21T08:15:30.628Z,101573.41
2022-09-21T08:18:13.035Z,101567.06
2022-09-21T08:20:55.492Z,101593.47
2022-09-21T08:23:36.021Z,101611.06
2022-09-21T08:26:18.931Z,101647.78
2022-09-21T08:28:58.705Z,101681.78
2022-09-21T08:31:38.114Z,101722.91
2022-09-21T08:34:20.443Z,101754.09
2022-09-21T08:37:02.948Z,101773.59
2022-09-21T08:39:42.300Z,101791.81
2022-09-21T08:42:39.179Z,101809.53
2022-09-21T08:45:23.144Z,101830.66
2022-09-21T08:48:07.446Z,101876.09
2022-09-21T08:51:47.740Z,101933.28
2022-09-21T08:54:33.752Z,102081.72
2022-09-21T08:57:14.593Z,102103.63
2022-09-21T08:59:54.920Z,102104.31
2022-09-21T09:02:41.502Z,102113.16
2022-09-21T09:05:34.832Z,102126.66
2022-09-21T09:08:27.496Z,102138.91
2022-09-21T09:11:17.916Z,102147.97
2022-09-21T09:14:10.991Z,102150.31
2022-09-21T09:17:00.949Z,102157.84
2022-09-21T09:19:45.982Z,102166.97
2022-09-21T09:22:28.884Z,102170.94
2022-09-21T09:25:17.863Z,102171.44
2022-09-21T09:28:02.506Z,102201.44
2022-09-21T09:30:58.639Z,102199.03
2022-09-21T09:33:47.627Z,102195.81
2022-09-21T09:36:59.263Z,102205.66
2022-09-21T09:39:42.235Z,102217.47
2022-09-21T09:42:39.061Z,102236.44
2022-09-21T09:45:29.187Z,102240.41
2022-09-21T09:48:20.273Z,102239.13
2022-09-21T09:51:00.862Z,102259.38
2022-09-21T09:53:55.554Z,102246.25
2022-09-21T09:56:37.382Z,102247.81
2022-09-21T09:59:23.840Z,102242.91
2022-09-21T10:02:05.176Z,102235.72
2022-09-21T10:04:55.915Z,102241.81
2022-09-21T10:07:39.994Z,102246.22
2022-09-21T10:10:27.897Z,102248.19
2022-09-21T10:13:15.321Z,102246.03
2022-09-21T10:15:58.554Z,102246.06
2022-09-21T10:18:41.067Z,102255.66
2022-09-21T10:21:23.730Z,102246.47
2022-09-21T10:24:05.667Z,102248.53
2022-09-21T10:26:46.776Z,102252.47
2022-09-21T10:29:33.874Z,102248.09
2022-09-21T10:32:26.927Z,102237.91
2022-09-21T10:35:19.062Z,102238.25
2022-09-21T10:38:22.055Z,102250.78
2022-09-21T10:41:02.804Z,102243.03
2022-09-21T10:43:44.407Z,102245.41
2022-09-21T10:46:35.476Z,102244.00
2022-09-21T10:49:20.074Z,102244.84
2022-09-21T10:51:59.944Z,102245.47
2022-09-21T10:54:42.595Z,102238.31
2022-09-21T10:57:26.399Z,102246.31
2022-09-21T11:00:35.594Z,102237.50
2022-09-21T11:03:41.556Z,102237.16
2022-09-21T11:06:25.421Z,102234.91
2022-09-21T11:09:08.987Z,102231.06
2022-09-21T11:11:53.085Z,102234.44
2022-09-21T11:14:44.100Z,102232.78
2022-09-21T11:17:29.245Z,102235.97
2022-09-21T11:20:20.697Z,102236.06
2022-09-21T11:23:05.989Z,102237.16
2022-09-21T11:26:04.567Z,102231.47
2022-09-21T11:28:49.024Z,102234.00
2022-09-21T11:31:38.457Z,102230.25
2022-09-21T11:34:40.630Z,102220.41
2022-09-21T11:37:33.969Z,102226.41
2022-09-21T11:40:26.691Z,102215.56
2022-09-21T11:43:23.065Z,102222.34
2022-09-21T11:46:11.881Z,102218.69
2022-09-21T11:49:08.006Z,102214.94
2022-09-21T11:51:59.604Z,102215.56
2022-09-21T11:55:04.496Z,102220.38
2022-09-21T11:57:54.973Z,102211.19
2022-09-21T12:00:44.444Z,102205.13
2022-09-21T12:03:50.639Z,102206.16
2022-09-21T12:06:43.716Z,102202.00
2022-09-21T12:09:46.958Z,102200.72
2022-09-21T12:12:31.835Z,102198.56
2022-09-21T12:15:18.370Z,102189.13
2022-09-21T12:18:03.855Z,102198.06
2022-09-21T12:20:48.745Z,102193.69
2022-09-21T12:23:39.640Z,102191.03
2022-09-21T12:26:24.686Z,102188.63
2022-09-21T12:29:11.663Z,102194.28
2022-09-21T12:31:59.104Z,102184.28
2022-09-21T12:34:42.800Z,102180.72
2022-09-21T12:37:26.466Z,102181.81
2022-09-21T12:40:25.119Z,102182.72
2022-09-21T12:43:11.851Z,102181.28
2022-09-21T12:45:54.130Z,102183.78
2022-09-21T12:48:36.428Z,102172.81
2022-09-21T12:51:25.632Z,102173.31
2022-09-21T12:54:14.441Z,102163.75
2022-09-21T12:56:59.751Z,102171.78
2022-09-21T12:59:50.787Z,102165.13
2022-09-21T13:02:35.399Z,102160.31
2022-09-21T13:05:18.977Z,102154.25
2022-09-21T13:08:19.081Z,102160.75
2022-09-21T13:11:04.436Z,102157.09
2022-09-21T13:13:52.864Z,102166.31
2022-09-21T13:16:34.147Z,102160.22
2022-09-21T13:19:23.760Z,102159.03
2022-09-21T13:22:19.727Z,102156.66
2022-09-21T13:25:05.374Z,102149.63
2022-09-21T13:28:16.895Z,102149.25
2022-09-21T13:31:41.789Z,102152.22
2022-09-21T13:34:35.070Z,102154.34
2022-09-21T13:37:34.008Z,102152.84
2022-09-21T13:40:43.469Z,102152.31
2022-09-21T13:43:47.084Z,102144.81
2022-09-21T13:46:50.314Z,102145.53
2022-09-21T13:49:45.625Z,102143.25
2022-09-21T13:52:39.332Z,102138.59
2022-09-21T13:55:24.902Z,102142.63
2022-09-21T13:58:07.139Z,102143.47
2022-09-21T14:00:55.180Z,102137.41
2022-09-21T14:03:39.678Z,102141.59
2022-09-21T14:06:24.367Z,102137.94
2022-09-21T14:09:08.928Z,102142.00
2022-09-21T14:11:55.478Z,102136.66
2022-09-21T14:14:38.161Z,102137.31
2022-09-21T14:17:38.684Z,102131.50
2022-09-21T14:20:30.764Z,102135.78
2022-09-21T14:23:29.996Z,102133.84
2022-09-21T14:26:33.203Z,102134.13
2022-09-21T14:29:18.025Z,102127.78
2022-09-21T14:32:16.200Z,102127.84
2022-09-21T14:34:58.124Z,102120.16
2022-09-21T14:37:43.127Z,102121.53
2022-09-21T14:40:26.952Z,102112.81
2022-09-21T14:43:10.478Z,102110.09
2022-09-21T14:46:04.861Z,102119.53
2022-09-21T14:48:54.693Z,102111.63
2022-09-21T14:51:39.748Z,102114.28
2022-09-21T14:54:31.285Z,102102.34
2022-09-21T14:57:35.108Z,102102.13
2022-09-21T15:00:23.260Z,102104.59
2022-09-21T15:03:18.888Z,102115.31
2022-09-21T15:06:22.766Z,102110.53
2022-09-21T15:09:49.177Z,102103.81
2022-09-21T15:12:57.699Z,102098.53
2022-09-21T15:15:44.383Z,102095.44
2022-09-21T15:18:25.714Z,102095.25
2022-09-21T15:21:05.867Z,102095.50
2022-09-21T15:23:45.468Z,102096.97
2022-09-21T15:26:28.983Z,102094.66
2022-09-21T15:29:22.271Z,102096.97
2022-09-21T15:32:05.023Z,102092.88
2022-09-21T15:34:47.025Z,102095.22
2022-09-21T15:37:26.704Z,102093.53
2022-09-21T15:40:18.302Z,102090.47
2022-09-21T15:43:04.441Z,102089.63
2022-09-21T15:45:51.799Z,102085.13
2022-09-21T15:48:35.461Z,102086.44
2022-09-21T15:51:23.291Z,102087.72
2022-09-21T15:54:31.986Z,102086.03
2022-09-21T15:57:36.202Z,102076.47
2022-09-21T16:00:26.761Z,102087.81
2022-09-21T16:03:09.786Z,102083.94
2022-09-21T16:05:52.773Z,102086.31
2022-09-21T16:08:35.047Z,102084.91
2022-09-21T16:11:18.893Z,102087.72
2022-09-21T16:14:30.618Z,102089.41
2022-09-21T16:17:25.815Z,102092.41
2022-09-21T16:20:19.435Z,102092.56
2022-09-21T16:23:07.672Z,102087.13
2022-09-21T16:25:54.811Z,102089.97
2022-09-21T16:28:40.642Z,102080.84
2022-09-21T16:31:31.559Z,102079.47
2022-09-21T16:34:22.660Z,102082.34
2022-09-21T16:37:24.136Z,102081.25
2022-09-21T16:40:03.951Z,102081.44
2022-09-21T16:42:46.109Z,102077.69
2022-09-21T16:45:32.277Z,102071.50
2022-09-21T16:48:13.572Z,102078.47
2022-09-21T16:50:56.034Z,102075.97
2022-09-21T16:53:42.811Z,102074.34
2022-09-21T16:56:25.247Z,102078.56
2022-09-21T16:59:14.216Z,102074.81
2022-09-21T17:01:57.021Z,102078.47
2022-09-21T17:04:42.898Z,102064.31
2022-09-21T17:07:25.531Z,102061.63
2022-09-21T17:10:11.998Z,102058.13
2022-09-21T17:12:53.880Z,102059.81
2022-09-21T17:15:35.804Z,102060.81
2022-09-21T17:18:15.568Z,102060.81
2022-09-21T17:20:55.131Z,102066.31
2022-09-21T17:23:37.060Z,102061.81
2022-09-21T17:26:21.047Z,102059.72
2022-09-21T17:29:05.607Z,102053.50
2022-09-21T17:31:45.544Z,102049.25
2022-09-21T17:34:27.626Z,102055.44
2022-09-21T17:37:07.241Z,102045.56
2022-09-21T17:39:50.026Z,102057.94
2022-09-21T17:42:43.392Z,102052.56
2022-09-21T17:45:28.583Z,102047.06
2022-09-21T17:48:16.823Z,102054.75
2022-09-21T17:50:59.619Z,102046.97
2022-09-21T17:53:42.202Z,102054.06
2022-09-21T17:56:34.856Z,102050.53
2022-09-21T17:59:26.166Z,102046.13
2022-09-21T18:02:20.313Z,102049.72
2022-09-21T18:05:04.286Z,102047.13
2022-09-21T18:07:45.124Z,102045.97
2022-09-21T18:10:29.470Z,102061.03
2022-09-21T18:13:17.412Z,102050.28
2022-09-21T18:16:06.324Z,102051.34
2022-09-21T18:18:52.755Z,102051.25
2022-09-21T18:21:36.525Z,102050.22
2022-09-21T18:24:26.358Z,102050.94
2022-09-21T18:27:12.725Z,102050.72
2022-09-21T18:29:55.990Z,102048.66
2022-09-21T18:32:57.283Z,102050.88
2022-09-21T18:35:48.153Z,102038.41
2022-09-21T18:38:32.882Z,102047.63
2022-09-21T18:41:21.356Z,102042.22
2022-09-21T18:44:08.915Z,102042.94
2022-09-21T18:46:56.836Z,102045.00
2022-09-21T18:50:03.444Z,102043.81
2022-09-21T18:52:50.420Z,102043.44
2022-09-21T18:55:45.186Z,102046.59
2022-09-21T18:58:50.436Z,102046.84
2022-09-21T19:01:32.984Z,102036.34
2022-09-21T19:04:14.182Z,102034.41
2022-09-21T19:06:59.992Z,102035.47
2022-09-21T19:09:45.310Z,102031.38
2022-09-21T19:12:32.783Z,102035.25
2022-09-21T19:15:17.022Z,102033.06
2022-09-21T19:18:20.568Z,102035.13
2022-09-21T19:21:09.086Z,102030.16
2022-09-21T19:24:01.878Z,102027.84
2022-09-21T19:26:50.781Z,102025.78
2022-09-21T19:29:39.180Z,102031.47
2022-09-21T19:32:25.795Z,102028.22
2022-09-21T19:35:17.614Z,102036.50
2022-09-21T19:37:58.090Z,102025.41
2022-09-21T19:40:40.085Z,102037.22
2022-09-21T19:43:45.179Z,102030.59
2022-09-21T19:46:32.161Z,102029.91
2022-09-21T19:49:18.265Z,102032.94
2022-09-21T19:52:03.453Z,102022.53
2022-09-21T19:55:03.939Z,102027.56
2022-09-21T19:58:02.813Z,102026.97
2022-09-21T20:00:46.830Z,102029.13
2022-09-21T20:03:31.512Z,102021.50
2022-09-21T20:06:16.762Z,102022.59
2022-09-21T20:09:05.372Z,102021.34
2022-09-21T20:12:15.157Z,102025.31
2022-09-21T20:14:59.162Z,102026.50
2022-09-21T20:17:46.049Z,102027.66
2022-09-21T20:20:27.025Z,102021.84
2022-09-21T20:23:10.131Z,102015.31
2022-09-21T20:25:54.827Z,102020.84
2022-09-21T20:28:34.678Z,102018.28
2022-09-21T20:31:15.423Z,102012.38
2022-09-21T20:33:58.122Z,102009.22
2022-09-21T20:36:38.030Z,102010.16
2022-09-21T20:39:17.521Z,102013.06
2022-09-21T20:41:58.360Z,102008.06
2022-09-21T20:44:38.543Z,102013.81
2022-09-21T20:47:21.477Z,102022.00
2022-09-21T20:50:01.349Z,102019.81
2022-09-21T20:52:42.000Z,102017.47
2022-09-21T20:55:22.607Z,102015.78
2022-09-21T20:58:04.424Z,102023.94
2022-09-21T21:00:44.909Z,102024.06
2022-09-21T21:03:25.320Z,102021.63
2022-09-21T21:06:18.592Z,102019.31
2022-09-21T21:08:57.841Z,102021.22
2022-09-21T21:11:39.715Z,102025.69
2022-09-21T21:14:21.356Z,102021.44
2022-09-21T21:17:05.268Z,102015.59
2022-09-21T21:19:45.383Z,102016.56
2022-09-21T21:22:24.882Z,102015.09
2022-09-21T21:25:05.821Z,102018.69
2022-09-21T21:27:46.054Z,102026.97
2022-09-21T21:30:28.103Z,102020.06
2022-09-21T21:33:07.341Z,102017.66
2022-09-21T21:35:51.314Z,102030.16
2022-09-21T21:38:33.688Z,102026.13
2022-09-21T21:41:14.138Z,102029.00
2022-09-21T21:43:54.966Z,102033.53
2022-09-21T21:47:38.153Z,102024.75
2022-09-21T21:50:15.712Z,102028.56
2022-09-21T21:52:59.305Z,102032.16
2022-09-21T21:56:08.741Z,102028.03
2022-09-21T21:58:48.125Z,102027.41
2022-09-21T22:01:29.612Z,102024.88
2022-09-21T22:04:09.374Z,102021.50
2022-09-21T22:06:49.680Z,102027.91
2022-09-21T22:09:27.780Z,102029.09
2022-09-21T22:12:07.681Z,102030.22
2022-09-21T22:14:47.623Z,102020.59
2022-09-21T22:17:26.713Z,102028.84
2022-09-21T22:20:08.034Z,102026.28
2022-09-21T22:22:48.430Z,102023.84
2022-09-21T22:25:29.813Z,102025.00
2022-09-21T22:28:09.185Z,102019.72
2022-09-21T22:30:49.812Z,102024.38
2022-09-21T22:33:33.487Z,102016.44
2022-09-21T22:36:15.139Z,102021.84
2022-09-21T22:38:55.340Z,102021.38
2022-09-21T22:41:36.614Z,102027.53
2022-09-21T22:44:16.060Z,102022.44
2022-09-21T22:47:09.687Z,102027.09
2022-09-21T22:49:48.954Z,102023.72
2022-09-21T22:52:28.792Z,102020.31
2022-09-21T22:55:09.808Z,102031.97
2022-09-21T22:57:50.357Z,102024.13
2022-09-21T23:00:30.993Z,102020.06
2022-09-21T23:03:11.917Z,102016.78
2022-09-21T23:05:57.700Z,102013.28
2022-09-21T23:08:54.006Z,102013.50
2022-09-21T23:11:37.268Z,102014.44
2022-09-21T23:14:16.114Z,102009.38
2022-09-21T23:16:58.486Z,102011.16
2022-09-21T23:19:38.502Z,102002.56
2022-09-21T23:22:19.865Z,102000.13
2022-09-21T23:25:01.090Z,102003.72
2022-09-21T23:27:40.403Z,102005.09
2022-09-21T23:30:20.608Z,101999.78
2022-09-21T23:33:00.035Z,102002.66
2022-09-21T23:35:43.198Z,102009.00
2022-09-21T23:38:26.599Z,101996.88
2022-09-21T23:41:08.387Z,102003.22
2022-09-21T23:43:49.254Z,101994.56
2022-09-21T23:46:29.800Z,101999.84
2022-09-21T23:49:10.514Z,101994.97
2022-09-21T23:51:51.891Z,101993.25
2022-09-21T23:54:31.297Z,101988.81
2022-09-21T23:57:11.094Z,101986.28
2022-09-21T23:59:52.918Z,101990.78
